Linda — OJML — position and weather

sailwx.info

Track history (hours):
 
Tides and Currents Weather Stations Pressure Air Temp Water Temp Dewpoint Dewpoint Depression Visibility Wind Speed Wind Dir Waves Ship Positions

Linda

Last reported at 2017-Jan-18 21:15 UTC. Time now 2017-Jan-19 04:28 UTC.
Position N 54°24' E 005°26'.

Length 141 m; draft 8.3 m.

Type: Ship (hazmat cat A). MMSI: 230984000.

Date/timePositionNaut miles runAvg speedWind from/ knotsBaromVisibWave heightAir tempDewpointWater temp
2017-Jan-18 21:15N 54°24' E 005°26'1116.1
2017-Jan-18 20:33N 54°14' E 005°16'1616.2
2017-Jan-18 19:33N 53°60' E 005°04'1716.3
2017-Jan-18 18:31N 53°44' E 004°54'2215.9
2017-Jan-18 17:09N 53°24' E 004°41'1415.6
2017-Jan-18 16:16N 53°11' E 004°33'1115.5
2017-Jan-18 15:34N 53°01' E 004°24'1615.4
2017-Jan-18 14:33N 52°48' E 004°11'1515.3
2017-Jan-18 13:33N 52°34' E 003°58'1515.0
2017-Jan-18 12:34N 52°20' E 003°52'1515.4
2017-Jan-18 11:34N 52°05' E 003°54'1313.1
2017-Jan-18 10:33N 51°57' E 004°11'9 9.4
2017-Jan-18 09:33N 51°53' E 004°25'0 0.1
2017-Jan-18 08:33N 51°53' E 004°25'0 0.0
2017-Jan-18 07:33N 51°53' E 004°25'0 0.0
2017-Jan-18 06:33N 51°53' E 004°25'0 0.0
2017-Jan-18 05:33N 51°53' E 004°25'0 0.0
2017-Jan-18 04:33N 51°53' E 004°25'0 0.0
2017-Jan-18 03:33N 51°53' E 004°25'0 0.0
2017-Jan-18 02:33N 51°53' E 004°25'0 0.0
2017-Jan-18 01:33N 51°53' E 004°25'0 0.0
2017-Jan-18 00:33N 51°53' E 004°25'0 0.0
2017-Jan-17 23:33N 51°53' E 004°25'0 0.0
2017-Jan-17 22:33N 51°53' E 004°25'0 0.0
2017-Jan-17 21:33N 51°53' E 004°25'0 0.0
2017-Jan-17 20:33N 51°53' E 004°25'0 0.0
2017-Jan-17 19:33N 51°53' E 004°25'0 0.0
2017-Jan-17 18:33N 51°53' E 004°25'0 0.0
2017-Jan-17 17:33N 51°53' E 004°25'0 0.0
2017-Jan-17 16:33N 51°53' E 004°25'1 1.2
2017-Jan-17 15:34N 51°54' E 004°24'1110.5
2017-Jan-17 14:33N 51°58' E 004°08'1514.6
2017-Jan-17 13:33N 52°01' E 003°45'1616.5
2017-Jan-17 12:33N 52°10' E 003°22'5617.3
2017-Jan-17 09:17N 52°46' E 002°12'1317.5
2017-Jan-17 08:33N 52°55' E 001°56'1717.0
2017-Jan-17 07:33N 53°06' E 001°34'6516.0
2017-Jan-17 03:28N 53°56' E 000°25'1415.8
2017-Jan-17 02:33N 54°07' E 000°09'1515.3
2017-Jan-17 01:33N 54°18' W 000°09'1515.3
2017-Jan-17 00:33N 54°30' W 000°27'416 9.6
2017-Jan-15 05:21N 57°47' E 010°30'1214.7
2017-Jan-15 04:33N 57°45' E 010°51'1615.7
2017-Jan-15 03:33N 57°35' E 011°14'1515.4
2017-Jan-15 02:34N 57°23' E 011°31'1615.8
2017-Jan-15 01:33N 57°07' E 011°39'11513.6
2017-Jan-14 17:05N 55°14' E 011°06'814.7
2017-Jan-14 16:33N 55°06' E 011°03'1414.1
2017-Jan-14 15:33N 54°53' E 010°54'1212.2
2017-Jan-14 14:33N 54°41' E 010°57'1514.7
2017-Jan-14 13:33N 54°34' E 011°20'1615.3
2017-Jan-14 12:32N 54°27' E 011°44'1515.1
2017-Jan-14 11:33N 54°26' E 012°09'1514.7
2017-Jan-14 10:33N 54°39' E 012°23'4915.8
2017-Jan-14 07:25N 54°60' E 013°41'1415.9
2017-Jan-14 06:34N 55°05' E 014°03'1615.7
2017-Jan-14 05:32N 55°17' E 014°22'1615.7
2017-Jan-14 04:33N 55°28' E 014°41'1615.7
2017-Jan-14 03:33N 55°36' E 015°05'344 6.7
2017-Jan-12 00:09N 59°33' E 022°49'711.4
2017-Jan-11 23:33N 59°35' E 023°02'1111.1
2017-Jan-11 22:33N 59°39' E 023°23'1312.5
2017-Jan-11 21:33N 59°43' E 023°46'1513.9
2017-Jan-11 20:28N 59°48' E 024°15'58 1.3
2017-Jan-10 01:06N 59°58' E 026°09'913.8
2017-Jan-10 00:27N 60°00' E 026°26'1313.7
2017-Jan-09 23:30N 60°00' E 026°52'4013.1
2017-Jan-09 20:29N 60°09' E 028°10'1213.1
2017-Jan-09 19:33N 60°03' E 028°31'3012.9
2017-Jan-09 17:14N 60°01' E 029°31'5 7.2
2017-Jan-09 16:33N 59°60' E 029°40'1 1.0
2017-Jan-09 15:10N 60°00' E 029°43'0 0.0
2017-Jan-09 14:31N 60°00' E 029°43'0 0.0
2017-Jan-09 13:25N 60°00' E 029°43'0 0.0
2017-Jan-09 12:28N 60°00' E 029°43'0 0.0
2017-Jan-09 11:31N 60°00' E 029°43'0 0.0
2017-Jan-09 10:31N 60°00' E 029°43'0 0.0
2017-Jan-09 08:22N 60°00' E 029°43'0 0.0
2017-Jan-09 06:31N 60°00' E 029°43'1 1.1
2017-Jan-09 05:26N 59°59' E 029°43'8 4.2
2017-Jan-09 03:25N 60°01' E 029°27'1213.7
2017-Jan-09 02:33N 60°02' E 029°03'1414.5
2017-Jan-09 01:33N 60°02' E 028°34'1413.7
2017-Jan-09 00:33N 60°08' E 028°10'1312.9
2017-Jan-08 23:33N 60°10' E 027°44'1414.1
2017-Jan-08 22:33N 60°03' E 027°20'1513.2
2017-Jan-08 21:25N 59°59' E 026°50'  
Track history (hours):
 
Tides and Currents Weather Stations Pressure Air Temp Water Temp Dewpoint Dewpoint Depression Visibility Wind Speed Wind Dir Waves Ship Positions

Linda

Last reported at 2017-Jan-18 21:15 UTC. Time now 2017-Jan-19 04:28 UTC.
Position N 54°24' E 005°26'.

Length 141 m; draft 8.3 m.

Type: Ship (hazmat cat A). MMSI: 230984000.

Date/timePositionNaut miles runAvg speedWind from/ knotsBaromVisibWave heightAir tempDewpointWater temp
2017-Jan-18 21:15N 54°24' E 005°26'1116.1
2017-Jan-18 20:33N 54°14' E 005°16'1616.2
2017-Jan-18 19:33N 53°60' E 005°04'1716.3
2017-Jan-18 18:31N 53°44' E 004°54'2215.9
2017-Jan-18 17:09N 53°24' E 004°41'1415.6
2017-Jan-18 16:16N 53°11' E 004°33'1115.5
2017-Jan-18 15:34N 53°01' E 004°24'1615.4
2017-Jan-18 14:33N 52°48' E 004°11'1515.3
2017-Jan-18 13:33N 52°34' E 003°58'1515.0
2017-Jan-18 12:34N 52°20' E 003°52'1515.4
2017-Jan-18 11:34N 52°05' E 003°54'1313.1
2017-Jan-18 10:33N 51°57' E 004°11'9 9.4
2017-Jan-18 09:33N 51°53' E 004°25'0 0.1
2017-Jan-18 08:33N 51°53' E 004°25'0 0.0
2017-Jan-18 07:33N 51°53' E 004°25'0 0.0
2017-Jan-18 06:33N 51°53' E 004°25'0 0.0
2017-Jan-18 05:33N 51°53' E 004°25'0 0.0
2017-Jan-18 04:33N 51°53' E 004°25'0 0.0
2017-Jan-18 03:33N 51°53' E 004°25'0 0.0
2017-Jan-18 02:33N 51°53' E 004°25'0 0.0
2017-Jan-18 01:33N 51°53' E 004°25'0 0.0
2017-Jan-18 00:33N 51°53' E 004°25'0 0.0
2017-Jan-17 23:33N 51°53' E 004°25'0 0.0
2017-Jan-17 22:33N 51°53' E 004°25'0 0.0
2017-Jan-17 21:33N 51°53' E 004°25'0 0.0
2017-Jan-17 20:33N 51°53' E 004°25'0 0.0
2017-Jan-17 19:33N 51°53' E 004°25'0 0.0
2017-Jan-17 18:33N 51°53' E 004°25'0 0.0
2017-Jan-17 17:33N 51°53' E 004°25'0 0.0
2017-Jan-17 16:33N 51°53' E 004°25'1 1.2
2017-Jan-17 15:34N 51°54' E 004°24'1110.5
2017-Jan-17 14:33N 51°58' E 004°08'1514.6
2017-Jan-17 13:33N 52°01' E 003°45'1616.5
2017-Jan-17 12:33N 52°10' E 003°22'5617.3
2017-Jan-17 09:17N 52°46' E 002°12'1317.5
2017-Jan-17 08:33N 52°55' E 001°56'1717.0
2017-Jan-17 07:33N 53°06' E 001°34'6516.0
2017-Jan-17 03:28N 53°56' E 000°25'1415.8
2017-Jan-17 02:33N 54°07' E 000°09'1515.3
2017-Jan-17 01:33N 54°18' W 000°09'1515.3
2017-Jan-17 00:33N 54°30' W 000°27'416 9.6
2017-Jan-15 05:21N 57°47' E 010°30'1214.7
2017-Jan-15 04:33N 57°45' E 010°51'1615.7
2017-Jan-15 03:33N 57°35' E 011°14'1515.4
2017-Jan-15 02:34N 57°23' E 011°31'1615.8
2017-Jan-15 01:33N 57°07' E 011°39'11513.6
2017-Jan-14 17:05N 55°14' E 011°06'814.7
2017-Jan-14 16:33N 55°06' E 011°03'1414.1
2017-Jan-14 15:33N 54°53' E 010°54'1212.2
2017-Jan-14 14:33N 54°41' E 010°57'1514.7
2017-Jan-14 13:33N 54°34' E 011°20'1615.3
2017-Jan-14 12:32N 54°27' E 011°44'1515.1
2017-Jan-14 11:33N 54°26' E 012°09'1514.7
2017-Jan-14 10:33N 54°39' E 012°23'4915.8
2017-Jan-14 07:25N 54°60' E 013°41'1415.9
2017-Jan-14 06:34N 55°05' E 014°03'1615.7
2017-Jan-14 05:32N 55°17' E 014°22'1615.7
2017-Jan-14 04:33N 55°28' E 014°41'1615.7
2017-Jan-14 03:33N 55°36' E 015°05'344 6.7
2017-Jan-12 00:09N 59°33' E 022°49'711.4
2017-Jan-11 23:33N 59°35' E 023°02'1111.1
2017-Jan-11 22:33N 59°39' E 023°23'1312.5
2017-Jan-11 21:33N 59°43' E 023°46'1513.9
2017-Jan-11 20:28N 59°48' E 024°15'58 1.3
2017-Jan-10 01:06N 59°58' E 026°09'913.8
2017-Jan-10 00:27N 60°00' E 026°26'1313.7
2017-Jan-09 23:30N 60°00' E 026°52'4013.1
2017-Jan-09 20:29N 60°09' E 028°10'1213.1
2017-Jan-09 19:33N 60°03' E 028°31'3012.9
2017-Jan-09 17:14N 60°01' E 029°31'5 7.2
2017-Jan-09 16:33N 59°60' E 029°40'1 1.0
2017-Jan-09 15:10N 60°00' E 029°43'0 0.0
2017-Jan-09 14:31N 60°00' E 029°43'0 0.0
2017-Jan-09 13:25N 60°00' E 029°43'0 0.0
2017-Jan-09 12:28N 60°00' E 029°43'0 0.0
2017-Jan-09 11:31N 60°00' E 029°43'0 0.0
2017-Jan-09 10:31N 60°00' E 029°43'0 0.0
2017-Jan-09 08:22N 60°00' E 029°43'0 0.0
2017-Jan-09 06:31N 60°00' E 029°43'1 1.1
2017-Jan-09 05:26N 59°59' E 029°43'8 4.2
2017-Jan-09 03:25N 60°01' E 029°27'1213.7
2017-Jan-09 02:33N 60°02' E 029°03'1414.5
2017-Jan-09 01:33N 60°02' E 028°34'1413.7
2017-Jan-09 00:33N 60°08' E 028°10'1312.9
2017-Jan-08 23:33N 60°10' E 027°44'1414.1
2017-Jan-08 22:33N 60°03' E 027°20'1513.2
2017-Jan-08 21:25N 59°59' E 026°50'  

Dump ship's entire track history